sensor_id;sensor_type;location;lat;lon;timestamp;temperature;humidity
18153;DHT22;9202;51.578;7.734;2022-12-05T00:01:43;2.60;99.90
18153;DHT22;9202;51.578;7.734;2022-12-05T00:03:46;2.60;99.90
18153;DHT22;9202;51.578;7.734;2022-12-05T00:05:49;2.70;99.90
18153;DHT22;9202;51.578;7.734;2022-12-05T00:07:52;2.60;99.90
18153;DHT22;9202;51.578;7.734;2022-12-05T00:09:54;2.60;99.90
18153;DHT22;9202;51.578;7.734;2022-12-05T00:11:57;2.60;99.90
18153;DHT22;9202;51.578;7.734;2022-12-05T00:14:00;2.60;99.90
18153;DHT22;9202;51.578;7.734;2022-12-05T00:16:06;2.70;99.90
18153;DHT22;9202;51.578;7.734;2022-12-05T00:18:08;2.70;99.90
18153;DHT22;9202;51.578;7.734;2022-12-05T00:20:11;2.70;99.90
18153;DHT22;9202;51.578;7.734;2022-12-05T00:22:14;2.60;99.90
18153;DHT22;9202;51.578;7.734;2022-12-05T00:24:16;2.60;99.90
18153;DHT22;9202;51.578;7.734;2022-12-05T00:26:20;2.60;99.90
18153;DHT22;9202;51.578;7.734;2022-12-05T00:28:23;2.60;99.90
18153;DHT22;9202;51.578;7.734;2022-12-05T00:30:25;2.60;99.90
18153;DHT22;9202;51.578;7.734;2022-12-05T00:32:28;2.60;99.90
18153;DHT22;9202;51.578;7.734;2022-12-05T00:34:30;2.60;99.90
18153;DHT22;9202;51.578;7.734;2022-12-05T00:36:34;2.60;99.90
18153;DHT22;9202;51.578;7.734;2022-12-05T00:38:36;2.60;99.90
18153;DHT22;9202;51.578;7.734;2022-12-05T00:40:39;2.60;99.90
18153;DHT22;9202;51.578;7.734;2022-12-05T00:42:41;2.60;99.90
18153;DHT22;9202;51.578;7.734;2022-12-05T00:44:48;2.60;99.90
18153;DHT22;9202;51.578;7.734;2022-12-05T00:46:51;2.70;99.90
18153;DHT22;9202;51.578;7.734;2022-12-05T00:48:54;2.70;99.90
18153;DHT22;9202;51.578;7.734;2022-12-05T00:51:00;2.70;99.90
18153;DHT22;9202;51.578;7.734;2022-12-05T00:53:02;2.60;99.90
18153;DHT22;9202;51.578;7.734;2022-12-05T00:55:06;2.60;99.90
18153;DHT22;9202;51.578;7.734;2022-12-05T00:57:08;2.60;99.90
18153;DHT22;9202;51.578;7.734;2022-12-05T00:59:13;2.60;99.90
18153;DHT22;9202;51.578;7.734;2022-12-05T01:01:22;2.60;99.90
18153;DHT22;9202;51.578;7.734;2022-12-05T01:03:36;2.60;99.90
18153;DHT22;9202;51.578;7.734;2022-12-05T01:05:41;2.60;99.90
18153;DHT22;9202;51.578;7.734;2022-12-05T01:07:45;2.60;99.90
18153;DHT22;9202;51.578;7.734;2022-12-05T01:09:48;2.70;99.90
18153;DHT22;9202;51.578;7.734;2022-12-05T01:11:50;2.60;99.90
18153;DHT22;9202;51.578;7.734;2022-12-05T01:13:53;2.60;99.90
18153;DHT22;9202;51.578;7.734;2022-12-05T01:15:56;2.60;99.90
18153;DHT22;9202;51.578;7.734;2022-12-05T01:17:58;2.50;99.90
18153;DHT22;9202;51.578;7.734;2022-12-05T01:20:01;2.60;99.90
18153;DHT22;9202;51.578;7.734;2022-12-05T01:24:23;2.60;99.90
18153;DHT22;9202;51.578;7.734;2022-12-05T01:26:26;2.50;99.90
18153;DHT22;9202;51.578;7.734;2022-12-05T01:28:28;2.50;99.90
18153;DHT22;9202;51.578;7.734;2022-12-05T01:30:31;2.60;99.90
18153;DHT22;9202;51.578;7.734;2022-12-05T01:32:33;2.50;99.90
18153;DHT22;9202;51.578;7.734;2022-12-05T01:34:36;2.60;99.90
18153;DHT22;9202;51.578;7.734;2022-12-05T01:36:39;2.50;99.90
18153;DHT22;9202;51.578;7.734;2022-12-05T01:38:42;2.60;99.90
18153;DHT22;9202;51.578;7.734;2022-12-05T01:40:45;2.60;99.90
18153;DHT22;9202;51.578;7.734;2022-12-05T01:42:47;2.60;99.90
18153;DHT22;9202;51.578;7.734;2022-12-05T01:45:00;2.60;99.90
18153;DHT22;9202;51.578;7.734;2022-12-05T01:47:03;2.60;99.90
18153;DHT22;9202;51.578;7.734;2022-12-05T01:49:06;2.70;99.90
18153;DHT22;9202;51.578;7.734;2022-12-05T01:51:10;2.60;99.90
18153;DHT22;9202;51.578;7.734;2022-12-05T01:53:13;2.60;99.90
18153;DHT22;9202;51.578;7.734;2022-12-05T01:55:16;2.60;99.90
18153;DHT22;9202;51.578;7.734;2022-12-05T01:57:19;2.60;99.90
18153;DHT22;9202;51.578;7.734;2022-12-05T01:59:23;2.60;99.90
18153;DHT22;9202;51.578;7.734;2022-12-05T02:01:26;2.60;99.90
18153;DHT22;9202;51.578;7.734;2022-12-05T02:03:28;2.60;99.90
18153;DHT22;9202;51.578;7.734;2022-12-05T02:05:32;2.60;99.90
18153;DHT22;9202;51.578;7.734;2022-12-05T02:07:35;2.60;99.90
18153;DHT22;9202;51.578;7.734;2022-12-05T02:09:39;2.60;99.90
18153;DHT22;9202;51.578;7.734;2022-12-05T02:14:04;2.60;99.90
18153;DHT22;9202;51.578;7.734;2022-12-05T02:16:08;2.60;99.90
18153;DHT22;9202;51.578;7.734;2022-12-05T02:18:19;2.60;99.90
18153;DHT22;9202;51.578;7.734;2022-12-05T02:20:29;2.60;99.90
18153;DHT22;9202;51.578;7.734;2022-12-05T02:22:49;2.60;99.90
18153;DHT22;9202;51.578;7.734;2022-12-05T02:25:00;2.60;99.90
18153;DHT22;9202;51.578;7.734;2022-12-05T02:27:08;2.60;99.90
18153;DHT22;9202;51.578;7.734;2022-12-05T02:34:09;2.80;99.90
18153;DHT22;9202;51.578;7.734;2022-12-05T02:36:14;2.80;99.90
18153;DHT22;9202;51.578;7.734;2022-12-05T02:38:22;2.70;99.90
18153;DHT22;9202;51.578;7.734;2022-12-05T02:40:25;2.80;99.90
18153;DHT22;9202;51.578;7.734;2022-12-05T02:42:30;2.70;99.90
18153;DHT22;9202;51.578;7.734;2022-12-05T02:44:34;2.60;99.90
18153;DHT22;9202;51.578;7.734;2022-12-05T02:46:38;2.60;99.90
18153;DHT22;9202;51.578;7.734;2022-12-05T02:48:41;2.60;99.90
18153;DHT22;9202;51.578;7.734;2022-12-05T02:50:46;2.60;99.90
18153;DHT22;9202;51.578;7.734;2022-12-05T02:52:50;2.60;99.90
18153;DHT22;9202;51.578;7.734;2022-12-05T02:54:55;2.60;99.90
18153;DHT22;9202;51.578;7.734;2022-12-05T02:56:57;2.60;99.90
18153;DHT22;9202;51.578;7.734;2022-12-05T02:59:01;2.60;99.90
18153;DHT22;9202;51.578;7.734;2022-12-05T03:01:04;2.70;99.90
18153;DHT22;9202;51.578;7.734;2022-12-05T03:03:11;2.70;99.90
18153;DHT22;9202;51.578;7.734;2022-12-05T03:05:16;2.70;99.90
18153;DHT22;9202;51.578;7.734;2022-12-05T03:07:19;2.80;99.90
18153;DHT22;9202;51.578;7.734;2022-12-05T03:09:23;2.70;99.90
18153;DHT22;9202;51.578;7.734;2022-12-05T03:11:27;2.70;99.90
18153;DHT22;9202;51.578;7.734;2022-12-05T03:13:33;2.70;99.90
18153;DHT22;9202;51.578;7.734;2022-12-05T03:15:36;2.70;99.90
18153;DHT22;9202;51.578;7.734;2022-12-05T03:17:40;2.70;99.90
18153;DHT22;9202;51.578;7.734;2022-12-05T03:19:46;2.70;99.90
18153;DHT22;9202;51.578;7.734;2022-12-05T03:21:50;2.70;99.90
18153;DHT22;9202;51.578;7.734;2022-12-05T03:23:55;2.70;99.90
18153;DHT22;9202;51.578;7.734;2022-12-05T03:26:01;2.70;99.90
18153;DHT22;9202;51.578;7.734;2022-12-05T03:28:04;2.80;99.90
18153;DHT22;9202;51.578;7.734;2022-12-05T03:30:09;2.80;99.90
18153;DHT22;9202;51.578;7.734;2022-12-05T03:32:14;2.70;99.90
18153;DHT22;9202;51.578;7.734;2022-12-05T03:34:17;2.70;99.90
18153;DHT22;9202;51.578;7.734;2022-12-05T03:36:22;2.70;99.90
18153;DHT22;9202;51.578;7.734;2022-12-05T03:38:25;2.70;99.90
18153;DHT22;9202;51.578;7.734;2022-12-05T03:40:30;2.70;99.90
18153;DHT22;9202;51.578;7.734;2022-12-05T03:42:35;2.70;99.90
18153;DHT22;9202;51.578;7.734;2022-12-05T03:44:45;2.70;99.90
18153;DHT22;9202;51.578;7.734;2022-12-05T03:46:44;2.70;99.90
18153;DHT22;9202;51.578;7.734;2022-12-05T03:48:49;2.70;99.90
18153;DHT22;9202;51.578;7.734;2022-12-05T03:50:52;2.70;99.90
18153;DHT22;9202;51.578;7.734;2022-12-05T03:52:56;2.70;99.90
18153;DHT22;9202;51.578;7.734;2022-12-05T03:55:01;2.70;99.90
18153;DHT22;9202;51.578;7.734;2022-12-05T03:57:07;2.70;99.90
18153;DHT22;9202;51.578;7.734;2022-12-05T03:59:12;2.70;99.90
18153;DHT22;9202;51.578;7.734;2022-12-05T04:01:14;2.70;99.90
18153;DHT22;9202;51.578;7.734;2022-12-05T04:03:19;2.70;99.90
18153;DHT22;9202;51.578;7.734;2022-12-05T04:05:22;2.70;99.90
18153;DHT22;9202;51.578;7.734;2022-12-05T04:07:26;2.70;99.90
18153;DHT22;9202;51.578;7.734;2022-12-05T04:09:32;2.70;99.90
18153;DHT22;9202;51.578;7.734;2022-12-05T04:11:36;2.70;99.90
18153;DHT22;9202;51.578;7.734;2022-12-05T04:13:39;2.70;99.90
18153;DHT22;9202;51.578;7.734;2022-12-05T04:15:43;2.70;99.90
18153;DHT22;9202;51.578;7.734;2022-12-05T04:18:06;2.70;99.90
18153;DHT22;9202;51.578;7.734;2022-12-05T04:20:11;2.70;99.90
18153;DHT22;9202;51.578;7.734;2022-12-05T04:22:32;2.70;99.90
18153;DHT22;9202;51.578;7.734;2022-12-05T04:24:35;2.70;99.90
18153;DHT22;9202;51.578;7.734;2022-12-05T04:27:03;2.70;99.90
18153;DHT22;9202;51.578;7.734;2022-12-05T04:29:02;2.60;99.90
18153;DHT22;9202;51.578;7.734;2022-12-05T04:31:06;2.70;99.90
18153;DHT22;9202;51.578;7.734;2022-12-05T04:33:10;2.70;99.90
18153;DHT22;9202;51.578;7.734;2022-12-05T04:35:14;2.70;99.90
18153;DHT22;9202;51.578;7.734;2022-12-05T04:37:18;2.70;99.90
18153;DHT22;9202;51.578;7.734;2022-12-05T04:39:24;2.80;99.90
18153;DHT22;9202;51.578;7.734;2022-12-05T04:41:27;2.70;99.90
18153;DHT22;9202;51.578;7.734;2022-12-05T04:43:32;2.70;99.90
18153;DHT22;9202;51.578;7.734;2022-12-05T04:45:35;2.70;99.90
18153;DHT22;9202;51.578;7.734;2022-12-05T04:47:40;2.80;99.90
18153;DHT22;9202;51.578;7.734;2022-12-05T04:49:43;2.80;99.90
18153;DHT22;9202;51.578;7.734;2022-12-05T04:51:49;2.80;99.90
18153;DHT22;9202;51.578;7.734;2022-12-05T04:53:54;2.70;99.90
18153;DHT22;9202;51.578;7.734;2022-12-05T04:55:57;2.70;99.90
18153;DHT22;9202;51.578;7.734;2022-12-05T04:58:02;2.70;99.90
18153;DHT22;9202;51.578;7.734;2022-12-05T05:00:06;2.80;99.90
18153;DHT22;9202;51.578;7.734;2022-12-05T05:02:09;2.80;99.90
18153;DHT22;9202;51.578;7.734;2022-12-05T05:04:15;2.70;99.90
18153;DHT22;9202;51.578;7.734;2022-12-05T05:06:18;2.80;99.90
18153;DHT22;9202;51.578;7.734;2022-12-05T05:08:22;2.70;99.90
18153;DHT22;9202;51.578;7.734;2022-12-05T05:10:26;2.70;99.90
18153;DHT22;9202;51.578;7.734;2022-12-05T05:12:29;2.60;99.90
18153;DHT22;9202;51.578;7.734;2022-12-05T05:14:32;2.60;99.90
18153;DHT22;9202;51.578;7.734;2022-12-05T05:16:35;2.60;99.90
18153;DHT22;9202;51.578;7.734;2022-12-05T05:18:38;2.60;99.90
18153;DHT22;9202;51.578;7.734;2022-12-05T05:20:40;2.60;99.90
18153;DHT22;9202;51.578;7.734;2022-12-05T05:22:43;2.60;99.90
18153;DHT22;9202;51.578;7.734;2022-12-05T05:24:45;2.60;99.90
18153;DHT22;9202;51.578;7.734;2022-12-05T05:26:48;2.50;99.90
18153;DHT22;9202;51.578;7.734;2022-12-05T05:28:53;2.50;99.90
18153;DHT22;9202;51.578;7.734;2022-12-05T05:30:55;2.50;99.90
18153;DHT22;9202;51.578;7.734;2022-12-05T05:32:59;2.50;99.90
18153;DHT22;9202;51.578;7.734;2022-12-05T05:35:02;2.50;99.90
18153;DHT22;9202;51.578;7.734;2022-12-05T05:37:05;2.40;99.90
18153;DHT22;9202;51.578;7.734;2022-12-05T05:39:11;2.40;99.90
18153;DHT22;9202;51.578;7.734;2022-12-05T05:41:14;2.50;99.90
18153;DHT22;9202;51.578;7.734;2022-12-05T05:43:17;2.50;99.90
18153;DHT22;9202;51.578;7.734;2022-12-05T05:45:20;2.50;99.90
18153;DHT22;9202;51.578;7.734;2022-12-05T05:47:23;2.50;99.90
18153;DHT22;9202;51.578;7.734;2022-12-05T05:49:26;2.50;99.90
18153;DHT22;9202;51.578;7.734;2022-12-05T05:51:28;2.50;99.90
18153;DHT22;9202;51.578;7.734;2022-12-05T05:53:31;2.60;99.90
18153;DHT22;9202;51.578;7.734;2022-12-05T05:55:33;2.50;99.90
18153;DHT22;9202;51.578;7.734;2022-12-05T05:57:36;2.60;99.90
18153;DHT22;9202;51.578;7.734;2022-12-05T05:59:38;2.50;99.90
18153;DHT22;9202;51.578;7.734;2022-12-05T06:01:41;2.60;99.90
18153;DHT22;9202;51.578;7.734;2022-12-05T06:03:44;2.50;99.90
18153;DHT22;9202;51.578;7.734;2022-12-05T06:05:55;2.50;99.90
18153;DHT22;9202;51.578;7.734;2022-12-05T06:07:58;2.60;99.90
18153;DHT22;9202;51.578;7.734;2022-12-05T06:10:00;2.60;99.90
18153;DHT22;9202;51.578;7.734;2022-12-05T06:12:04;2.60;99.90
18153;DHT22;9202;51.578;7.734;2022-12-05T06:14:07;2.50;99.90
18153;DHT22;9202;51.578;7.734;2022-12-05T06:16:11;2.60;99.90
18153;DHT22;9202;51.578;7.734;2022-12-05T06:18:14;2.50;99.90
18153;DHT22;9202;51.578;7.734;2022-12-05T06:20:16;2.50;99.90
18153;DHT22;9202;51.578;7.734;2022-12-05T06:22:19;2.40;99.90
18153;DHT22;9202;51.578;7.734;2022-12-05T06:24:21;2.40;99.90
18153;DHT22;9202;51.578;7.734;2022-12-05T06:26:24;2.40;99.90
18153;DHT22;9202;51.578;7.734;2022-12-05T06:28:27;2.40;99.90
18153;DHT22;9202;51.578;7.734;2022-12-05T06:30:30;2.40;99.90
18153;DHT22;9202;51.578;7.734;2022-12-05T06:32:33;2.40;99.90
18153;DHT22;9202;51.578;7.734;2022-12-05T06:34:35;2.30;99.90
18153;DHT22;9202;51.578;7.734;2022-12-05T06:36:38;2.30;99.90
18153;DHT22;9202;51.578;7.734;2022-12-05T06:38:41;2.10;99.90
18153;DHT22;9202;51.578;7.734;2022-12-05T06:40:44;2.10;99.90
18153;DHT22;9202;51.578;7.734;2022-12-05T06:42:47;2.10;99.90
18153;DHT22;9202;51.578;7.734;2022-12-05T06:44:49;2.00;99.90
18153;DHT22;9202;51.578;7.734;2022-12-05T06:46:52;2.00;99.90
18153;DHT22;9202;51.578;7.734;2022-12-05T06:48:55;1.90;99.90
18153;DHT22;9202;51.578;7.734;2022-12-05T06:50:58;1.90;99.90
18153;DHT22;9202;51.578;7.734;2022-12-05T06:53:01;1.90;99.90
18153;DHT22;9202;51.578;7.734;2022-12-05T06:55:04;1.90;99.90
18153;DHT22;9202;51.578;7.734;2022-12-05T06:57:08;1.80;99.90
18153;DHT22;9202;51.578;7.734;2022-12-05T06:59:11;1.80;99.90
18153;DHT22;9202;51.578;7.734;2022-12-05T07:01:14;1.80;99.90
18153;DHT22;9202;51.578;7.734;2022-12-05T07:03:35;1.80;99.90
18153;DHT22;9202;51.578;7.734;2022-12-05T07:05:37;1.70;99.90
18153;DHT22;9202;51.578;7.734;2022-12-05T07:07:40;1.70;99.90
18153;DHT22;9202;51.578;7.734;2022-12-05T07:09:42;1.60;99.90
18153;DHT22;9202;51.578;7.734;2022-12-05T07:11:49;1.60;99.90
18153;DHT22;9202;51.578;7.734;2022-12-05T07:13:51;1.60;99.90
18153;DHT22;9202;51.578;7.734;2022-12-05T07:15:54;1.60;99.90
18153;DHT22;9202;51.578;7.734;2022-12-05T07:17:57;1.60;99.90
18153;DHT22;9202;51.578;7.734;2022-12-05T07:19:59;1.60;99.90
18153;DHT22;9202;51.578;7.734;2022-12-05T07:22:03;1.60;99.90
18153;DHT22;9202;51.578;7.734;2022-12-05T07:24:06;1.60;99.90
18153;DHT22;9202;51.578;7.734;2022-12-05T07:26:09;1.50;99.90
18153;DHT22;9202;51.578;7.734;2022-12-05T07:28:12;1.60;99.90
18153;DHT22;9202;51.578;7.734;2022-12-05T07:30:15;1.60;99.90
18153;DHT22;9202;51.578;7.734;2022-12-05T07:32:18;1.60;99.90
18153;DHT22;9202;51.578;7.734;2022-12-05T07:34:21;1.60;99.90
18153;DHT22;9202;51.578;7.734;2022-12-05T07:36:23;1.60;99.90
18153;DHT22;9202;51.578;7.734;2022-12-05T07:38:26;1.60;99.90
18153;DHT22;9202;51.578;7.734;2022-12-05T07:40:28;1.60;99.90
18153;DHT22;9202;51.578;7.734;2022-12-05T07:42:31;1.60;99.90
18153;DHT22;9202;51.578;7.734;2022-12-05T07:44:33;1.60;99.90
18153;DHT22;9202;51.578;7.734;2022-12-05T07:46:36;1.60;99.90
18153;DHT22;9202;51.578;7.734;2022-12-05T07:48:39;1.60;99.90
18153;DHT22;9202;51.578;7.734;2022-12-05T07:50:41;1.60;99.90
18153;DHT22;9202;51.578;7.734;2022-12-05T07:52:44;1.60;99.90
18153;DHT22;9202;51.578;7.734;2022-12-05T07:54:46;1.60;99.90
18153;DHT22;9202;51.578;7.734;2022-12-05T07:56:49;1.60;99.90
18153;DHT22;9202;51.578;7.734;2022-12-05T07:58:52;1.50;99.90
18153;DHT22;9202;51.578;7.734;2022-12-05T08:00:56;1.50;99.90
18153;DHT22;9202;51.578;7.734;2022-12-05T08:03:00;1.60;99.90
18153;DHT22;9202;51.578;7.734;2022-12-05T08:05:04;1.60;99.90
18153;DHT22;9202;51.578;7.734;2022-12-05T08:07:09;1.60;99.90
18153;DHT22;9202;51.578;7.734;2022-12-05T08:09:11;1.60;99.90
18153;DHT22;9202;51.578;7.734;2022-12-05T08:11:17;1.60;99.90
18153;DHT22;9202;51.578;7.734;2022-12-05T08:13:20;1.60;99.90
18153;DHT22;9202;51.578;7.734;2022-12-05T08:15:22;1.60;99.90
18153;DHT22;9202;51.578;7.734;2022-12-05T08:17:27;1.60;99.90
18153;DHT22;9202;51.578;7.734;2022-12-05T08:19:29;1.60;99.90
18153;DHT22;9202;51.578;7.734;2022-12-05T08:21:32;1.60;99.90
18153;DHT22;9202;51.578;7.734;2022-12-05T08:23:50;1.60;99.90
18153;DHT22;9202;51.578;7.734;2022-12-05T08:26:02;1.60;99.90
18153;DHT22;9202;51.578;7.734;2022-12-05T08:28:05;1.60;99.90
18153;DHT22;9202;51.578;7.734;2022-12-05T08:30:08;1.60;99.90
18153;DHT22;9202;51.578;7.734;2022-12-05T08:32:10;1.60;99.90
18153;DHT22;9202;51.578;7.734;2022-12-05T08:34:14;1.50;99.90
18153;DHT22;9202;51.578;7.734;2022-12-05T08:36:17;1.60;99.90
18153;DHT22;9202;51.578;7.734;2022-12-05T08:38:20;1.50;99.90
18153;DHT22;9202;51.578;7.734;2022-12-05T08:40:22;1.50;99.90
18153;DHT22;9202;51.578;7.734;2022-12-05T08:42:25;1.60;99.90
18153;DHT22;9202;51.578;7.734;2022-12-05T08:44:28;1.60;99.90
18153;DHT22;9202;51.578;7.734;2022-12-05T08:46:31;1.60;99.90
18153;DHT22;9202;51.578;7.734;2022-12-05T08:48:34;1.60;99.90
18153;DHT22;9202;51.578;7.734;2022-12-05T08:50:38;1.60;99.90
18153;DHT22;9202;51.578;7.734;2022-12-05T08:52:40;1.60;99.90
18153;DHT22;9202;51.578;7.734;2022-12-05T08:54:43;1.60;99.90
18153;DHT22;9202;51.578;7.734;2022-12-05T08:56:46;1.60;99.90
18153;DHT22;9202;51.578;7.734;2022-12-05T08:58:50;1.60;99.90
18153;DHT22;9202;51.578;7.734;2022-12-05T09:00:53;1.60;99.90
18153;DHT22;9202;51.578;7.734;2022-12-05T09:02:55;1.60;99.90
18153;DHT22;9202;51.578;7.734;2022-12-05T09:05:00;1.70;99.90
18153;DHT22;9202;51.578;7.734;2022-12-05T09:07:09;1.60;99.90
18153;DHT22;9202;51.578;7.734;2022-12-05T09:09:21;1.60;99.90
18153;DHT22;9202;51.578;7.734;2022-12-05T09:11:26;1.60;99.90
18153;DHT22;9202;51.578;7.734;2022-12-05T09:13:30;1.60;99.90
18153;DHT22;9202;51.578;7.734;2022-12-05T09:15:33;1.70;99.90
18153;DHT22;9202;51.578;7.734;2022-12-05T09:17:36;1.70;99.90
18153;DHT22;9202;51.578;7.734;2022-12-05T09:19:38;1.70;99.90
18153;DHT22;9202;51.578;7.734;2022-12-05T09:21:41;1.70;99.90
18153;DHT22;9202;51.578;7.734;2022-12-05T09:23:44;1.70;99.90
18153;DHT22;9202;51.578;7.734;2022-12-05T09:25:52;1.70;99.90
18153;DHT22;9202;51.578;7.734;2022-12-05T09:27:55;1.70;99.90
18153;DHT22;9202;51.578;7.734;2022-12-05T09:29:58;1.70;99.90
18153;DHT22;9202;51.578;7.734;2022-12-05T09:32:01;1.80;99.90
18153;DHT22;9202;51.578;7.734;2022-12-05T09:34:03;1.80;99.90
18153;DHT22;9202;51.578;7.734;2022-12-05T09:36:08;1.70;99.90
18153;DHT22;9202;51.578;7.734;2022-12-05T09:38:12;1.70;99.90
18153;DHT22;9202;51.578;7.734;2022-12-05T09:40:15;1.70;99.90
18153;DHT22;9202;51.578;7.734;2022-12-05T09:42:22;1.70;99.90
18153;DHT22;9202;51.578;7.734;2022-12-05T09:44:26;1.70;99.90
18153;DHT22;9202;51.578;7.734;2022-12-05T09:46:32;1.70;99.90
18153;DHT22;9202;51.578;7.734;2022-12-05T09:48:35;1.70;99.90
18153;DHT22;9202;51.578;7.734;2022-12-05T09:50:41;1.70;99.90
18153;DHT22;9202;51.578;7.734;2022-12-05T09:52:47;1.70;99.90
18153;DHT22;9202;51.578;7.734;2022-12-05T09:54:49;1.70;99.90
18153;DHT22;9202;51.578;7.734;2022-12-05T09:56:54;1.70;99.90
18153;DHT22;9202;51.578;7.734;2022-12-05T09:58:57;1.60;99.90
18153;DHT22;9202;51.578;7.734;2022-12-05T10:01:02;1.70;99.90
18153;DHT22;9202;51.578;7.734;2022-12-05T10:03:08;1.70;99.90
18153;DHT22;9202;51.578;7.734;2022-12-05T10:05:11;1.70;99.90
18153;DHT22;9202;51.578;7.734;2022-12-05T10:07:16;1.70;99.90
18153;DHT22;9202;51.578;7.734;2022-12-05T10:09:23;1.70;99.90
18153;DHT22;9202;51.578;7.734;2022-12-05T10:11:29;1.70;99.90
18153;DHT22;9202;51.578;7.734;2022-12-05T10:13:38;1.70;99.90
18153;DHT22;9202;51.578;7.734;2022-12-05T10:15:42;1.70;99.90
18153;DHT22;9202;51.578;7.734;2022-12-05T10:17:49;1.60;99.90
18153;DHT22;9202;51.578;7.734;2022-12-05T10:19:52;1.60;99.90
18153;DHT22;9202;51.578;7.734;2022-12-05T10:21:58;1.60;99.90
18153;DHT22;9202;51.578;7.734;2022-12-05T10:24:03;1.60;99.90
18153;DHT22;9202;51.578;7.734;2022-12-05T10:26:08;1.60;99.90
18153;DHT22;9202;51.578;7.734;2022-12-05T10:28:14;1.60;99.90
18153;DHT22;9202;51.578;7.734;2022-12-05T10:56:44;2.40;99.90
18153;DHT22;9202;51.578;7.734;2022-12-05T10:58:53;1.90;99.90
18153;DHT22;9202;51.578;7.734;2022-12-05T11:00:57;1.90;99.90
18153;DHT22;9202;51.578;7.734;2022-12-05T11:03:02;1.90;99.90
18153;DHT22;9202;51.578;7.734;2022-12-05T11:05:06;1.90;99.90
18153;DHT22;9202;51.578;7.734;2022-12-05T11:07:20;1.90;99.90
18153;DHT22;9202;51.578;7.734;2022-12-05T11:09:15;1.80;99.90
18153;DHT22;9202;51.578;7.734;2022-12-05T11:11:18;1.80;99.90
18153;DHT22;9202;51.578;7.734;2022-12-05T11:13:23;1.80;99.90
18153;DHT22;9202;51.578;7.734;2022-12-05T11:15:26;1.80;99.90
18153;DHT22;9202;51.578;7.734;2022-12-05T11:17:30;1.80;99.90
18153;DHT22;9202;51.578;7.734;2022-12-05T11:19:34;1.80;99.90
18153;DHT22;9202;51.578;7.734;2022-12-05T11:21:41;1.70;99.90
18153;DHT22;9202;51.578;7.734;2022-12-05T11:23:45;1.70;99.90
18153;DHT22;9202;51.578;7.734;2022-12-05T11:25:48;1.70;99.90
18153;DHT22;9202;51.578;7.734;2022-12-05T11:27:50;1.60;99.90
18153;DHT22;9202;51.578;7.734;2022-12-05T11:29:54;1.60;99.90
18153;DHT22;9202;51.578;7.734;2022-12-05T11:31:58;1.60;99.90
18153;DHT22;9202;51.578;7.734;2022-12-05T11:34:09;1.60;99.90
18153;DHT22;9202;51.578;7.734;2022-12-05T11:36:13;1.60;99.90
18153;DHT22;9202;51.578;7.734;2022-12-05T11:38:18;1.60;99.90
18153;DHT22;9202;51.578;7.734;2022-12-05T11:40:23;1.60;99.90
18153;DHT22;9202;51.578;7.734;2022-12-05T11:42:31;1.70;99.90
18153;DHT22;9202;51.578;7.734;2022-12-05T11:47:06;1.60;99.90
18153;DHT22;9202;51.578;7.734;2022-12-05T11:49:20;1.70;99.90
18153;DHT22;9202;51.578;7.734;2022-12-05T11:51:27;1.60;99.90
18153;DHT22;9202;51.578;7.734;2022-12-05T11:53:41;1.60;99.90
18153;DHT22;9202;51.578;7.734;2022-12-05T11:55:44;1.60;99.90
18153;DHT22;9202;51.578;7.734;2022-12-05T12:00:21;1.60;99.90
18153;DHT22;9202;51.578;7.734;2022-12-05T12:02:26;1.60;99.90
18153;DHT22;9202;51.578;7.734;2022-12-05T12:06:56;1.60;99.90
18153;DHT22;9202;51.578;7.734;2022-12-05T12:09:05;1.70;99.90
18153;DHT22;9202;51.578;7.734;2022-12-05T12:11:10;1.60;99.90
18153;DHT22;9202;51.578;7.734;2022-12-05T12:13:17;1.60;99.90
18153;DHT22;9202;51.578;7.734;2022-12-05T12:15:25;1.70;99.90
18153;DHT22;9202;51.578;7.734;2022-12-05T12:30:46;1.60;99.90
18153;DHT22;9202;51.578;7.734;2022-12-05T12:32:54;1.50;99.90
18153;DHT22;9202;51.578;7.734;2022-12-05T12:35:12;1.50;99.90
18153;DHT22;9202;51.578;7.734;2022-12-05T12:37:15;1.40;99.90
18153;DHT22;9202;51.578;7.734;2022-12-05T12:39:22;1.50;99.90
18153;DHT22;9202;51.578;7.734;2022-12-05T12:41:39;1.50;99.90
18153;DHT22;9202;51.578;7.734;2022-12-05T12:43:44;1.50;99.90
18153;DHT22;9202;51.578;7.734;2022-12-05T12:46:04;1.40;99.90
18153;DHT22;9202;51.578;7.734;2022-12-05T12:48:16;1.50;99.90
18153;DHT22;9202;51.578;7.734;2022-12-05T12:50:21;1.40;99.90
18153;DHT22;9202;51.578;7.734;2022-12-05T12:52:27;1.40;99.90
18153;DHT22;9202;51.578;7.734;2022-12-05T12:54:43;1.50;99.90
18153;DHT22;9202;51.578;7.734;2022-12-05T12:56:51;1.50;99.90
18153;DHT22;9202;51.578;7.734;2022-12-05T12:58:56;1.40;99.90
18153;DHT22;9202;51.578;7.734;2022-12-05T13:01:01;1.50;99.90
18153;DHT22;9202;51.578;7.734;2022-12-05T13:03:06;1.50;99.90
18153;DHT22;9202;51.578;7.734;2022-12-05T13:05:14;1.50;99.90
18153;DHT22;9202;51.578;7.734;2022-12-05T13:07:17;1.50;99.90
18153;DHT22;9202;51.578;7.734;2022-12-05T13:09:21;1.40;99.90
18153;DHT22;9202;51.578;7.734;2022-12-05T13:11:25;1.40;99.90
18153;DHT22;9202;51.578;7.734;2022-12-05T13:19:41;0.40;99.90
18153;DHT22;9202;51.578;7.734;2022-12-05T13:24:35;1.50;99.90
18153;DHT22;9202;51.578;7.734;2022-12-05T13:26:38;1.50;99.90
18153;DHT22;9202;51.578;7.734;2022-12-05T13:28:48;1.40;99.90
18153;DHT22;9202;51.578;7.734;2022-12-05T13:30:53;0.20;99.90
18153;DHT22;9202;51.578;7.734;2022-12-05T13:33:00;1.60;99.90
18153;DHT22;9202;51.578;7.734;2022-12-05T13:35:07;1.40;99.90
18153;DHT22;9202;51.578;7.734;2022-12-05T13:37:11;-0.20;99.90
18153;DHT22;9202;51.578;7.734;2022-12-05T13:39:33;1.80;99.90
18153;DHT22;9202;51.578;7.734;2022-12-05T13:41:54;1.40;99.90
18153;DHT22;9202;51.578;7.734;2022-12-05T13:44:16;1.50;99.90
18153;DHT22;9202;51.578;7.734;2022-12-05T13:46:23;1.40;99.90
18153;DHT22;9202;51.578;7.734;2022-12-05T13:48:26;1.40;99.90
18153;DHT22;9202;51.578;7.734;2022-12-05T13:50:31;1.40;99.90
18153;DHT22;9202;51.578;7.734;2022-12-05T13:52:39;1.40;99.90
18153;DHT22;9202;51.578;7.734;2022-12-05T13:54:43;1.40;99.90
18153;DHT22;9202;51.578;7.734;2022-12-05T13:56:48;1.40;99.90
18153;DHT22;9202;51.578;7.734;2022-12-05T13:58:54;1.40;99.90
18153;DHT22;9202;51.578;7.734;2022-12-05T14:05:47;1.40;99.90
18153;DHT22;9202;51.578;7.734;2022-12-05T14:07:50;1.40;99.90
18153;DHT22;9202;51.578;7.734;2022-12-05T14:09:59;1.40;99.90
18153;DHT22;9202;51.578;7.734;2022-12-05T14:14:41;1.30;99.90
18153;DHT22;9202;51.578;7.734;2022-12-05T14:16:48;1.70;99.90
18153;DHT22;9202;51.578;7.734;2022-12-05T14:18:52;1.40;99.90
18153;DHT22;9202;51.578;7.734;2022-12-05T14:20:59;1.40;99.90
18153;DHT22;9202;51.578;7.734;2022-12-05T14:23:10;1.40;99.90
18153;DHT22;9202;51.578;7.734;2022-12-05T14:25:18;1.40;99.90
18153;DHT22;9202;51.578;7.734;2022-12-05T14:27:24;1.30;99.90
18153;DHT22;9202;51.578;7.734;2022-12-05T14:29:36;1.30;99.90
18153;DHT22;9202;51.578;7.734;2022-12-05T14:31:41;1.30;99.90
18153;DHT22;9202;51.578;7.734;2022-12-05T14:33:44;1.20;99.90
18153;DHT22;9202;51.578;7.734;2022-12-05T14:35:47;1.30;99.90
18153;DHT22;9202;51.578;7.734;2022-12-05T14:37:53;1.30;99.90
18153;DHT22;9202;51.578;7.734;2022-12-05T14:39:57;1.30;99.90
18153;DHT22;9202;51.578;7.734;2022-12-05T14:42:00;1.30;99.90
18153;DHT22;9202;51.578;7.734;2022-12-05T14:44:04;1.20;99.90
18153;DHT22;9202;51.578;7.734;2022-12-05T14:46:15;1.30;99.90
18153;DHT22;9202;51.578;7.734;2022-12-05T14:48:25;1.30;99.90